sensor_id;sensor_type;location;lat;lon;timestamp;P1;durP1;ratioP1;P2;durP2;ratioP2
27491;SDS011;14927;51.210;6.838;2022-08-24T00:01:07;3.80;;;1.65;;
27491;SDS011;14927;51.210;6.838;2022-08-24T00:07:23;5.85;;;1.88;;
27491;SDS011;14927;51.210;6.838;2022-08-24T00:10:09;9.00;;;2.13;;
27491;SDS011;14927;51.210;6.838;2022-08-24T00:12:56;4.05;;;2.20;;
27491;SDS011;14927;51.210;6.838;2022-08-24T00:15:41;7.75;;;2.30;;
27491;SDS011;14927;51.210;6.838;2022-08-24T00:18:26;7.03;;;2.30;;
27491;SDS011;14927;51.210;6.838;2022-08-24T00:21:11;8.65;;;2.05;;
27491;SDS011;14927;51.210;6.838;2022-08-24T00:23:56;4.80;;;2.08;;
27491;SDS011;14927;51.210;6.838;2022-08-24T00:26:40;5.78;;;2.38;;
27491;SDS011;14927;51.210;6.838;2022-08-24T00:29:25;5.90;;;2.15;;
27491;SDS011;14927;51.210;6.838;2022-08-24T00:32:10;5.85;;;2.35;;
27491;SDS011;14927;51.210;6.838;2022-08-24T00:34:54;6.05;;;2.08;;
27491;SDS011;14927;51.210;6.838;2022-08-24T00:37:39;10.27;;;2.08;;
27491;SDS011;14927;51.210;6.838;2022-08-24T00:40:33;3.60;;;2.08;;
27491;SDS011;14927;51.210;6.838;2022-08-24T00:43:24;8.77;;;3.22;;
27491;SDS011;14927;51.210;6.838;2022-08-24T00:46:13;8.30;;;2.78;;
27491;SDS011;14927;51.210;6.838;2022-08-24T00:49:10;6.95;;;2.22;;
27491;SDS011;14927;51.210;6.838;2022-08-24T00:52:17;8.57;;;2.60;;
27491;SDS011;14927;51.210;6.838;2022-08-24T00:55:11;5.30;;;2.55;;
27491;SDS011;14927;51.210;6.838;2022-08-24T00:58:03;8.25;;;3.05;;
27491;SDS011;14927;51.210;6.838;2022-08-24T01:00:57;7.95;;;2.72;;
27491;SDS011;14927;51.210;6.838;2022-08-24T01:03:45;4.72;;;2.40;;
27491;SDS011;14927;51.210;6.838;2022-08-24T01:06:30;7.07;;;2.30;;
27491;SDS011;14927;51.210;6.838;2022-08-24T01:09:16;4.28;;;2.38;;
27491;SDS011;14927;51.210;6.838;2022-08-24T01:12:01;4.35;;;2.22;;
27491;SDS011;14927;51.210;6.838;2022-08-24T01:14:55;7.82;;;3.10;;
27491;SDS011;14927;51.210;6.838;2022-08-24T01:17:41;5.43;;;2.75;;
27491;SDS011;14927;51.210;6.838;2022-08-24T01:20:48;5.82;;;2.63;;
27491;SDS011;14927;51.210;6.838;2022-08-24T01:23:58;19.77;;;3.13;;
27491;SDS011;14927;51.210;6.838;2022-08-24T01:26:48;5.38;;;2.75;;
27491;SDS011;14927;51.210;6.838;2022-08-24T01:29:33;7.50;;;2.70;;
27491;SDS011;14927;51.210;6.838;2022-08-24T01:32:21;4.80;;;2.47;;
27491;SDS011;14927;51.210;6.838;2022-08-24T01:35:07;7.63;;;2.90;;
27491;SDS011;14927;51.210;6.838;2022-08-24T01:37:52;5.20;;;2.13;;
27491;SDS011;14927;51.210;6.838;2022-08-24T01:40:43;6.55;;;2.30;;
27491;SDS011;14927;51.210;6.838;2022-08-24T01:43:33;6.80;;;2.40;;
27491;SDS011;14927;51.210;6.838;2022-08-24T01:46:18;7.32;;;2.55;;
27491;SDS011;14927;51.210;6.838;2022-08-24T01:51:53;5.57;;;2.70;;
27491;SDS011;14927;51.210;6.838;2022-08-24T01:54:38;9.93;;;3.00;;
27491;SDS011;14927;51.210;6.838;2022-08-24T01:57:24;9.07;;;3.20;;
27491;SDS011;14927;51.210;6.838;2022-08-24T02:00:11;6.00;;;2.67;;
27491;SDS011;14927;51.210;6.838;2022-08-24T02:02:57;4.65;;;2.90;;
27491;SDS011;14927;51.210;6.838;2022-08-24T02:05:42;9.30;;;3.30;;
27491;SDS011;14927;51.210;6.838;2022-08-24T02:08:26;11.52;;;3.15;;
27491;SDS011;14927;51.210;6.838;2022-08-24T02:11:11;6.07;;;3.00;;
27491;SDS011;14927;51.210;6.838;2022-08-24T02:13:56;6.18;;;3.10;;
27491;SDS011;14927;51.210;6.838;2022-08-24T02:16:41;8.00;;;3.25;;
27491;SDS011;14927;51.210;6.838;2022-08-24T02:19:26;8.32;;;2.67;;
27491;SDS011;14927;51.210;6.838;2022-08-24T02:22:10;8.90;;;3.55;;
27491;SDS011;14927;51.210;6.838;2022-08-24T02:24:55;7.57;;;3.42;;
27491;SDS011;14927;51.210;6.838;2022-08-24T02:27:40;8.88;;;3.58;;
27491;SDS011;14927;51.210;6.838;2022-08-24T02:30:24;6.60;;;3.33;;
27491;SDS011;14927;51.210;6.838;2022-08-24T02:33:10;9.50;;;3.70;;
27491;SDS011;14927;51.210;6.838;2022-08-24T02:35:55;10.98;;;3.92;;
27491;SDS011;14927;51.210;6.838;2022-08-24T02:38:40;6.93;;;3.20;;
27491;SDS011;14927;51.210;6.838;2022-08-24T02:41:25;7.55;;;3.10;;
27491;SDS011;14927;51.210;6.838;2022-08-24T02:44:10;8.23;;;3.30;;
27491;SDS011;14927;51.210;6.838;2022-08-24T02:46:54;7.40;;;3.40;;
27491;SDS011;14927;51.210;6.838;2022-08-24T02:49:39;7.00;;;3.35;;
27491;SDS011;14927;51.210;6.838;2022-08-24T02:52:24;8.00;;;3.75;;
27491;SDS011;14927;51.210;6.838;2022-08-24T02:55:12;5.78;;;2.97;;
27491;SDS011;14927;51.210;6.838;2022-08-24T02:58:01;6.32;;;3.10;;
27491;SDS011;14927;51.210;6.838;2022-08-24T03:00:47;6.32;;;3.03;;
27491;SDS011;14927;51.210;6.838;2022-08-24T03:03:32;10.82;;;3.60;;
27491;SDS011;14927;51.210;6.838;2022-08-24T03:06:16;6.25;;;3.13;;
27491;SDS011;14927;51.210;6.838;2022-08-24T03:09:02;8.32;;;3.60;;
27491;SDS011;14927;51.210;6.838;2022-08-24T03:11:47;10.18;;;4.32;;
27491;SDS011;14927;51.210;6.838;2022-08-24T03:14:32;12.57;;;3.90;;
27491;SDS011;14927;51.210;6.838;2022-08-24T03:17:18;8.90;;;4.00;;
27491;SDS011;14927;51.210;6.838;2022-08-24T03:20:03;9.00;;;3.85;;
27491;SDS011;14927;51.210;6.838;2022-08-24T03:22:51;10.80;;;4.10;;
27491;SDS011;14927;51.210;6.838;2022-08-24T03:25:35;8.55;;;4.38;;
27491;SDS011;14927;51.210;6.838;2022-08-24T03:28:21;8.10;;;3.97;;
27491;SDS011;14927;51.210;6.838;2022-08-24T03:31:07;7.05;;;3.55;;
27491;SDS011;14927;51.210;6.838;2022-08-24T03:33:51;8.23;;;4.00;;
27491;SDS011;14927;51.210;6.838;2022-08-24T03:36:36;7.25;;;3.42;;
27491;SDS011;14927;51.210;6.838;2022-08-24T03:39:22;9.27;;;4.20;;
27491;SDS011;14927;51.210;6.838;2022-08-24T03:42:06;10.75;;;4.43;;
27491;SDS011;14927;51.210;6.838;2022-08-24T03:44:51;11.23;;;3.97;;
27491;SDS011;14927;51.210;6.838;2022-08-24T03:47:45;6.85;;;3.45;;
27491;SDS011;14927;51.210;6.838;2022-08-24T03:50:29;7.90;;;4.15;;
27491;SDS011;14927;51.210;6.838;2022-08-24T03:53:14;10.60;;;3.42;;
27491;SDS011;14927;51.210;6.838;2022-08-24T03:55:59;11.27;;;3.38;;
27491;SDS011;14927;51.210;6.838;2022-08-24T03:58:44;7.60;;;3.50;;
27491;SDS011;14927;51.210;6.838;2022-08-24T04:01:29;11.75;;;3.65;;
27491;SDS011;14927;51.210;6.838;2022-08-24T04:04:14;7.05;;;3.35;;
27491;SDS011;14927;51.210;6.838;2022-08-24T04:06:58;8.75;;;3.75;;
27491;SDS011;14927;51.210;6.838;2022-08-24T04:09:43;9.38;;;3.00;;
27491;SDS011;14927;51.210;6.838;2022-08-24T04:12:28;9.35;;;3.38;;
27491;SDS011;14927;51.210;6.838;2022-08-24T04:15:12;9.60;;;3.47;;
27491;SDS011;14927;51.210;6.838;2022-08-24T04:17:57;8.27;;;3.47;;
27491;SDS011;14927;51.210;6.838;2022-08-24T04:20:42;9.88;;;3.28;;
27491;SDS011;14927;51.210;6.838;2022-08-24T04:23:27;8.63;;;3.38;;
27491;SDS011;14927;51.210;6.838;2022-08-24T04:26:11;8.82;;;3.42;;
27491;SDS011;14927;51.210;6.838;2022-08-24T04:28:58;4.55;;;3.03;;
27491;SDS011;14927;51.210;6.838;2022-08-24T04:31:43;7.03;;;3.38;;
27491;SDS011;14927;51.210;6.838;2022-08-24T04:34:28;9.90;;;3.65;;
27491;SDS011;14927;51.210;6.838;2022-08-24T04:37:12;9.40;;;3.85;;
27491;SDS011;14927;51.210;6.838;2022-08-24T04:39:57;5.20;;;2.97;;
27491;SDS011;14927;51.210;6.838;2022-08-24T04:42:42;9.32;;;3.58;;
27491;SDS011;14927;51.210;6.838;2022-08-24T04:45:27;9.65;;;3.80;;
27491;SDS011;14927;51.210;6.838;2022-08-24T04:48:13;9.10;;;3.30;;
27491;SDS011;14927;51.210;6.838;2022-08-24T04:51:02;10.13;;;4.22;;
27491;SDS011;14927;51.210;6.838;2022-08-24T04:53:50;8.52;;;3.65;;
27491;SDS011;14927;51.210;6.838;2022-08-24T04:56:35;10.45;;;4.07;;
27491;SDS011;14927;51.210;6.838;2022-08-24T04:59:19;7.22;;;3.65;;
27491;SDS011;14927;51.210;6.838;2022-08-24T05:02:04;8.77;;;4.25;;
27491;SDS011;14927;51.210;6.838;2022-08-24T05:04:51;9.40;;;3.75;;
27491;SDS011;14927;51.210;6.838;2022-08-24T05:07:38;10.10;;;4.40;;
27491;SDS011;14927;51.210;6.838;2022-08-24T05:10:22;11.18;;;3.65;;
27491;SDS011;14927;51.210;6.838;2022-08-24T05:13:08;6.63;;;3.75;;
27491;SDS011;14927;51.210;6.838;2022-08-24T05:15:53;8.77;;;3.63;;
27491;SDS011;14927;51.210;6.838;2022-08-24T05:18:38;8.35;;;4.13;;
27491;SDS011;14927;51.210;6.838;2022-08-24T05:21:23;10.25;;;3.90;;
27491;SDS011;14927;51.210;6.838;2022-08-24T05:24:08;7.45;;;3.78;;
27491;SDS011;14927;51.210;6.838;2022-08-24T05:26:53;11.55;;;4.43;;
27491;SDS011;14927;51.210;6.838;2022-08-24T05:29:37;10.45;;;4.47;;
27491;SDS011;14927;51.210;6.838;2022-08-24T05:32:22;6.95;;;3.80;;
27491;SDS011;14927;51.210;6.838;2022-08-24T05:35:07;8.90;;;4.03;;
27491;SDS011;14927;51.210;6.838;2022-08-24T05:37:52;9.30;;;3.85;;
27491;SDS011;14927;51.210;6.838;2022-08-24T05:43:58;7.47;;;3.90;;
27491;SDS011;14927;51.210;6.838;2022-08-24T05:46:43;13.20;;;3.95;;
27491;SDS011;14927;51.210;6.838;2022-08-24T05:49:28;7.50;;;4.00;;
27491;SDS011;14927;51.210;6.838;2022-08-24T05:52:13;8.75;;;3.88;;
27491;SDS011;14927;51.210;6.838;2022-08-24T05:54:58;10.38;;;4.00;;
27491;SDS011;14927;51.210;6.838;2022-08-24T05:57:43;9.30;;;3.47;;
27491;SDS011;14927;51.210;6.838;2022-08-24T06:00:28;12.48;;;4.28;;
27491;SDS011;14927;51.210;6.838;2022-08-24T06:03:14;10.25;;;4.13;;
27491;SDS011;14927;51.210;6.838;2022-08-24T06:06:00;7.53;;;3.83;;
27491;SDS011;14927;51.210;6.838;2022-08-24T06:08:48;9.63;;;4.00;;
27491;SDS011;14927;51.210;6.838;2022-08-24T06:11:36;8.23;;;3.58;;
27491;SDS011;14927;51.210;6.838;2022-08-24T06:14:22;7.30;;;3.42;;
27491;SDS011;14927;51.210;6.838;2022-08-24T06:17:07;9.35;;;4.00;;
27491;SDS011;14927;51.210;6.838;2022-08-24T06:19:52;10.38;;;4.40;;
27491;SDS011;14927;51.210;6.838;2022-08-24T06:22:37;8.02;;;3.38;;
27491;SDS011;14927;51.210;6.838;2022-08-24T06:25:21;7.30;;;3.47;;
27491;SDS011;14927;51.210;6.838;2022-08-24T06:28:25;7.20;;;2.95;;
27491;SDS011;14927;51.210;6.838;2022-08-24T06:31:13;8.27;;;2.97;;
27491;SDS011;14927;51.210;6.838;2022-08-24T06:33:58;8.52;;;2.75;;
27491;SDS011;14927;51.210;6.838;2022-08-24T06:36:43;6.03;;;2.40;;
27491;SDS011;14927;51.210;6.838;2022-08-24T06:39:28;9.65;;;3.45;;
27491;SDS011;14927;51.210;6.838;2022-08-24T06:42:12;23.05;;;6.60;;
27491;SDS011;14927;51.210;6.838;2022-08-24T06:44:57;11.43;;;5.10;;
27491;SDS011;14927;51.210;6.838;2022-08-24T06:47:41;4.93;;;2.47;;
27491;SDS011;14927;51.210;6.838;2022-08-24T06:50:26;5.63;;;2.30;;
27491;SDS011;14927;51.210;6.838;2022-08-24T06:53:11;6.05;;;2.72;;
27491;SDS011;14927;51.210;6.838;2022-08-24T06:56:00;3.78;;;2.10;;
27491;SDS011;14927;51.210;6.838;2022-08-24T06:58:44;3.22;;;2.10;;
27491;SDS011;14927;51.210;6.838;2022-08-24T07:01:31;7.60;;;2.55;;
27491;SDS011;14927;51.210;6.838;2022-08-24T07:04:16;5.25;;;2.30;;
27491;SDS011;14927;51.210;6.838;2022-08-24T07:07:01;6.13;;;2.00;;
27491;SDS011;14927;51.210;6.838;2022-08-24T07:09:46;8.40;;;2.03;;
27491;SDS011;14927;51.210;6.838;2022-08-24T07:12:31;7.25;;;1.88;;
27491;SDS011;14927;51.210;6.838;2022-08-24T07:15:16;4.82;;;1.85;;
27491;SDS011;14927;51.210;6.838;2022-08-24T07:18:02;4.90;;;2.22;;
27491;SDS011;14927;51.210;6.838;2022-08-24T07:20:47;6.80;;;2.50;;
27491;SDS011;14927;51.210;6.838;2022-08-24T07:23:33;3.65;;;1.83;;
27491;SDS011;14927;51.210;6.838;2022-08-24T07:26:19;7.40;;;1.80;;
27491;SDS011;14927;51.210;6.838;2022-08-24T07:29:08;3.35;;;1.80;;
27491;SDS011;14927;51.210;6.838;2022-08-24T07:31:57;5.28;;;2.03;;
27491;SDS011;14927;51.210;6.838;2022-08-24T07:34:42;7.05;;;1.92;;
27491;SDS011;14927;51.210;6.838;2022-08-24T07:37:36;5.45;;;2.15;;
27491;SDS011;14927;51.210;6.838;2022-08-24T07:40:22;4.20;;;1.60;;
27491;SDS011;14927;51.210;6.838;2022-08-24T07:43:08;3.53;;;2.38;;
27491;SDS011;14927;51.210;6.838;2022-08-24T07:45:53;11.23;;;2.35;;
27491;SDS011;14927;51.210;6.838;2022-08-24T07:48:38;5.53;;;1.90;;
27491;SDS011;14927;51.210;6.838;2022-08-24T07:51:25;6.30;;;2.50;;
27491;SDS011;14927;51.210;6.838;2022-08-24T07:54:11;9.18;;;2.38;;
27491;SDS011;14927;51.210;6.838;2022-08-24T07:56:57;8.85;;;3.45;;
27491;SDS011;14927;51.210;6.838;2022-08-24T07:59:45;5.40;;;2.13;;
27491;SDS011;14927;51.210;6.838;2022-08-24T08:02:30;4.20;;;1.80;;
27491;SDS011;14927;51.210;6.838;2022-08-24T08:05:16;3.67;;;1.75;;
27491;SDS011;14927;51.210;6.838;2022-08-24T08:08:04;3.65;;;2.10;;
27491;SDS011;14927;51.210;6.838;2022-08-24T08:10:49;4.70;;;1.83;;
27491;SDS011;14927;51.210;6.838;2022-08-24T08:13:34;9.40;;;1.98;;
27491;SDS011;14927;51.210;6.838;2022-08-24T08:16:20;5.78;;;3.05;;
27491;SDS011;14927;51.210;6.838;2022-08-24T08:19:04;5.97;;;1.98;;
27491;SDS011;14927;51.210;6.838;2022-08-24T08:21:50;6.43;;;2.95;;
27491;SDS011;14927;51.210;6.838;2022-08-24T08:24:55;5.10;;;3.13;;
27491;SDS011;14927;51.210;6.838;2022-08-24T08:27:39;6.65;;;1.95;;
27491;SDS011;14927;51.210;6.838;2022-08-24T08:30:24;5.88;;;1.90;;
27491;SDS011;14927;51.210;6.838;2022-08-24T08:33:09;10.10;;;2.17;;
27491;SDS011;14927;51.210;6.838;2022-08-24T08:35:59;9.35;;;1.88;;
27491;SDS011;14927;51.210;6.838;2022-08-24T08:38:52;6.80;;;2.92;;
27491;SDS011;14927;51.210;6.838;2022-08-24T08:51:37;3.97;;;1.52;;
27491;SDS011;14927;51.210;6.838;2022-08-24T08:54:53;4.32;;;1.58;;
27491;SDS011;14927;51.210;6.838;2022-08-24T09:23:08;4.05;;;1.50;;
27491;SDS011;14927;51.210;6.838;2022-08-24T09:26:34;4.47;;;1.60;;
27491;SDS011;14927;51.210;6.838;2022-08-24T09:32:43;3.88;;;1.58;;
27491;SDS011;14927;51.210;6.838;2022-08-24T09:41:51;7.65;;;2.42;;
27491;SDS011;14927;51.210;6.838;2022-08-24T09:48:10;5.03;;;1.63;;
27491;SDS011;14927;51.210;6.838;2022-08-24T09:58:00;4.47;;;1.90;;
27491;SDS011;14927;51.210;6.838;2022-08-24T10:01:08;4.95;;;1.80;;
27491;SDS011;14927;51.210;6.838;2022-08-24T10:04:09;4.20;;;2.08;;
27491;SDS011;14927;51.210;6.838;2022-08-24T10:07:27;3.72;;;2.30;;
27491;SDS011;14927;51.210;6.838;2022-08-24T10:13:58;20.02;;;4.32;;
27491;SDS011;14927;51.210;6.838;2022-08-24T10:17:23;4.80;;;2.00;;
27491;SDS011;14927;51.210;6.838;2022-08-24T10:20:42;5.07;;;2.42;;
27491;SDS011;14927;51.210;6.838;2022-08-24T10:23:44;3.33;;;2.22;;
27491;SDS011;14927;51.210;6.838;2022-08-24T10:30:08;5.32;;;2.28;;
27491;SDS011;14927;51.210;6.838;2022-08-24T10:33:18;6.15;;;2.20;;
27491;SDS011;14927;51.210;6.838;2022-08-24T10:36:14;6.05;;;2.05;;
27491;SDS011;14927;51.210;6.838;2022-08-24T10:42:43;6.80;;;2.50;;
27491;SDS011;14927;51.210;6.838;2022-08-24T10:46:27;4.30;;;2.10;;
27491;SDS011;14927;51.210;6.838;2022-08-24T10:55:32;11.07;;;2.45;;
27491;SDS011;14927;51.210;6.838;2022-08-24T10:58:39;10.40;;;2.25;;
27491;SDS011;14927;51.210;6.838;2022-08-24T11:01:36;6.18;;;2.00;;
27491;SDS011;14927;51.210;6.838;2022-08-24T11:04:25;2.90;;;1.40;;
27491;SDS011;14927;51.210;6.838;2022-08-24T11:10:03;4.53;;;1.58;;
27491;SDS011;14927;51.210;6.838;2022-08-24T11:12:52;4.45;;;1.80;;
27491;SDS011;14927;51.210;6.838;2022-08-24T11:15:37;6.88;;;1.52;;
27491;SDS011;14927;51.210;6.838;2022-08-24T11:18:48;2.90;;;1.35;;
27491;SDS011;14927;51.210;6.838;2022-08-24T11:22:20;3.13;;;1.48;;
27491;SDS011;14927;51.210;6.838;2022-08-24T11:25:21;5.03;;;1.13;;
27491;SDS011;14927;51.210;6.838;2022-08-24T11:31:28;6.90;;;1.10;;
27491;SDS011;14927;51.210;6.838;2022-08-24T11:34:29;2.85;;;1.17;;
27491;SDS011;14927;51.210;6.838;2022-08-24T11:37:23;4.78;;;1.17;;
27491;SDS011;14927;51.210;6.838;2022-08-24T11:40:21;2.10;;;0.90;;
27491;SDS011;14927;51.210;6.838;2022-08-24T11:46:42;3.30;;;1.55;;
27491;SDS011;14927;51.210;6.838;2022-08-24T11:52:53;3.33;;;1.00;;
27491;SDS011;14927;51.210;6.838;2022-08-24T11:55:52;2.10;;;1.00;;
27491;SDS011;14927;51.210;6.838;2022-08-24T12:06:12;2.92;;;1.08;;
27491;SDS011;14927;51.210;6.838;2022-08-24T12:09:44;3.25;;;1.40;;
27491;SDS011;14927;51.210;6.838;2022-08-24T12:16:42;3.80;;;1.50;;
27491;SDS011;14927;51.210;6.838;2022-08-24T12:22:20;7.28;;;1.00;;
27491;SDS011;14927;51.210;6.838;2022-08-24T12:25:06;1.52;;;0.90;;
27491;SDS011;14927;51.210;6.838;2022-08-24T12:28:12;1.55;;;0.95;;
27491;SDS011;14927;51.210;6.838;2022-08-24T12:31:12;2.65;;;0.85;;
27491;SDS011;14927;51.210;6.838;2022-08-24T12:34:07;3.65;;;0.90;;
27491;SDS011;14927;51.210;6.838;2022-08-24T12:37:02;1.98;;;1.00;;
27491;SDS011;14927;51.210;6.838;2022-08-24T12:39:57;0.82;;;0.68;;
27491;SDS011;14927;51.210;6.838;2022-08-24T12:42:58;1.63;;;0.80;;
27491;SDS011;14927;51.210;6.838;2022-08-24T12:45:49;5.07;;;1.23;;
27491;SDS011;14927;51.210;6.838;2022-08-24T12:48:39;4.10;;;1.10;;
27491;SDS011;14927;51.210;6.838;2022-08-24T13:01:33;2.30;;;1.00;;
27491;SDS011;14927;51.210;6.838;2022-08-24T13:04:30;1.10;;;1.00;;
27491;SDS011;14927;51.210;6.838;2022-08-24T13:10:10;2.58;;;1.15;;
27491;SDS011;14927;51.210;6.838;2022-08-24T13:13:07;2.47;;;1.15;;
27491;SDS011;14927;51.210;6.838;2022-08-24T13:15:57;1.67;;;0.88;;
27491;SDS011;14927;51.210;6.838;2022-08-24T13:18:48;1.27;;;1.00;;
27491;SDS011;14927;51.210;6.838;2022-08-24T13:21:59;3.80;;;0.95;;
27491;SDS011;14927;51.210;6.838;2022-08-24T13:24:57;5.22;;;1.48;;
27491;SDS011;14927;51.210;6.838;2022-08-24T13:27:46;2.08;;;0.90;;
27491;SDS011;14927;51.210;6.838;2022-08-24T13:33:51;1.73;;;0.82;;
27491;SDS011;14927;51.210;6.838;2022-08-24T13:40:16;4.03;;;0.73;;
27491;SDS011;14927;51.210;6.838;2022-08-24T13:43:13;2.33;;;1.23;;
27491;SDS011;14927;51.210;6.838;2022-08-24T13:52:07;1.42;;;0.82;;
27491;SDS011;14927;51.210;6.838;2022-08-24T14:05:16;1.30;;;0.88;;
27491;SDS011;14927;51.210;6.838;2022-08-24T14:18:25;1.50;;;0.82;;
27491;SDS011;14927;51.210;6.838;2022-08-24T14:21:32;1.90;;;1.10;;
27491;SDS011;14927;51.210;6.838;2022-08-24T14:24:44;1.67;;;0.70;;
27491;SDS011;14927;51.210;6.838;2022-08-24T14:27:46;2.85;;;0.90;;
27491;SDS011;14927;51.210;6.838;2022-08-24T14:46:50;3.05;;;1.08;;
27491;SDS011;14927;51.210;6.838;2022-08-24T14:50:31;1.75;;;0.85;;
27491;SDS011;14927;51.210;6.838;2022-08-24T14:53:15;5.47;;;0.98;;
27491;SDS011;14927;51.210;6.838;2022-08-24T14:56:49;2.95;;;0.95;;
27491;SDS011;14927;51.210;6.838;2022-08-24T14:59:47;3.13;;;0.82;;
27491;SDS011;14927;51.210;6.838;2022-08-24T15:06:18;7.70;;;1.27;;
27491;SDS011;14927;51.210;6.838;2022-08-24T15:15:28;1.25;;;0.82;;
27491;SDS011;14927;51.210;6.838;2022-08-24T15:24:46;2.65;;;0.65;;
27491;SDS011;14927;51.210;6.838;2022-08-24T15:27:57;1.13;;;0.75;;
27491;SDS011;14927;51.210;6.838;2022-08-24T15:33:54;5.95;;;1.50;;
27491;SDS011;14927;51.210;6.838;2022-08-24T15:36:56;3.78;;;0.90;;
27491;SDS011;14927;51.210;6.838;2022-08-24T15:39:44;2.35;;;1.38;;
27491;SDS011;14927;51.210;6.838;2022-08-24T15:42:29;4.82;;;1.20;;
27491;SDS011;14927;51.210;6.838;2022-08-24T15:45:18;1.48;;;0.90;;
27491;SDS011;14927;51.210;6.838;2022-08-24T15:48:03;3.13;;;1.40;;
27491;SDS011;14927;51.210;6.838;2022-08-24T15:50:48;3.10;;;1.35;;
27491;SDS011;14927;51.210;6.838;2022-08-24T15:53:38;1.05;;;0.90;;
27491;SDS011;14927;51.210;6.838;2022-08-24T15:56:30;4.88;;;0.98;;
27491;SDS011;14927;51.210;6.838;2022-08-24T16:02:27;3.33;;;1.17;;
27491;SDS011;14927;51.210;6.838;2022-08-24T16:08:19;4.10;;;1.05;;
27491;SDS011;14927;51.210;6.838;2022-08-24T16:11:18;1.40;;;0.88;;
27491;SDS011;14927;51.210;6.838;2022-08-24T16:14:31;1.98;;;0.80;;
27491;SDS011;14927;51.210;6.838;2022-08-24T16:17:24;1.35;;;0.90;;
27491;SDS011;14927;51.210;6.838;2022-08-24T16:20:34;3.17;;;0.98;;
27491;SDS011;14927;51.210;6.838;2022-08-24T16:23:23;2.47;;;1.45;;
27491;SDS011;14927;51.210;6.838;2022-08-24T16:26:18;4.45;;;1.20;;
27491;SDS011;14927;51.210;6.838;2022-08-24T16:32:26;1.77;;;0.80;;
27491;SDS011;14927;51.210;6.838;2022-08-24T16:35:14;2.50;;;0.77;;
27491;SDS011;14927;51.210;6.838;2022-08-24T16:38:03;2.83;;;1.13;;
27491;SDS011;14927;51.210;6.838;2022-08-24T16:40:47;2.10;;;0.77;;
27491;SDS011;14927;51.210;6.838;2022-08-24T16:43:33;2.15;;;1.20;;
27491;SDS011;14927;51.210;6.838;2022-08-24T16:46:21;2.67;;;1.25;;
27491;SDS011;14927;51.210;6.838;2022-08-24T16:49:06;6.78;;;1.40;;
27491;SDS011;14927;51.210;6.838;2022-08-24T16:51:51;1.80;;;1.02;;
27491;SDS011;14927;51.210;6.838;2022-08-24T16:54:36;3.80;;;1.00;;
27491;SDS011;14927;51.210;6.838;2022-08-24T16:57:22;1.73;;;1.00;;
27491;SDS011;14927;51.210;6.838;2022-08-24T17:00:13;3.90;;;1.02;;
27491;SDS011;14927;51.210;6.838;2022-08-24T17:03:04;2.08;;;0.82;;
27491;SDS011;14927;51.210;6.838;2022-08-24T17:05:49;3.72;;;0.98;;
27491;SDS011;14927;51.210;6.838;2022-08-24T17:08:33;3.97;;;1.20;;
27491;SDS011;14927;51.210;6.838;2022-08-24T17:11:18;4.35;;;1.27;;
27491;SDS011;14927;51.210;6.838;2022-08-24T17:14:03;7.53;;;1.65;;
27491;SDS011;14927;51.210;6.838;2022-08-24T17:16:48;3.55;;;1.00;;
27491;SDS011;14927;51.210;6.838;2022-08-24T17:19:33;1.88;;;1.35;;
27491;SDS011;14927;51.210;6.838;2022-08-24T17:22:19;2.83;;;1.30;;
27491;SDS011;14927;51.210;6.838;2022-08-24T17:25:08;1.77;;;1.13;;
27491;SDS011;14927;51.210;6.838;2022-08-24T17:27:53;3.42;;;1.20;;
27491;SDS011;14927;51.210;6.838;2022-08-24T17:30:39;4.18;;;1.10;;
27491;SDS011;14927;51.210;6.838;2022-08-24T17:33:26;4.72;;;1.38;;
27491;SDS011;14927;51.210;6.838;2022-08-24T17:36:10;3.33;;;1.50;;
27491;SDS011;14927;51.210;6.838;2022-08-24T17:38:56;3.72;;;1.30;;
27491;SDS011;14927;51.210;6.838;2022-08-24T17:41:42;1.88;;;1.13;;
27491;SDS011;14927;51.210;6.838;2022-08-24T17:44:28;4.80;;;1.58;;
27491;SDS011;14927;51.210;6.838;2022-08-24T17:47:15;6.37;;;1.50;;
27491;SDS011;14927;51.210;6.838;2022-08-24T17:50:00;4.25;;;1.50;;
27491;SDS011;14927;51.210;6.838;2022-08-24T17:52:47;4.78;;;1.40;;
27491;SDS011;14927;51.210;6.838;2022-08-24T17:55:31;2.97;;;2.00;;
27491;SDS011;14927;51.210;6.838;2022-08-24T17:58:16;6.32;;;1.80;;
27491;SDS011;14927;51.210;6.838;2022-08-24T18:01:00;3.22;;;2.03;;
27491;SDS011;14927;51.210;6.838;2022-08-24T18:03:45;5.30;;;1.95;;
27491;SDS011;14927;51.210;6.838;2022-08-24T18:06:30;7.18;;;1.70;;
27491;SDS011;14927;51.210;6.838;2022-08-24T18:12:35;7.93;;;1.95;;
27491;SDS011;14927;51.210;6.838;2022-08-24T18:15:20;4.10;;;1.60;;
27491;SDS011;14927;51.210;6.838;2022-08-24T18:18:05;5.88;;;1.45;;
27491;SDS011;14927;51.210;6.838;2022-08-24T18:20:52;4.13;;;2.20;;
27491;SDS011;14927;51.210;6.838;2022-08-24T18:23:36;2.70;;;1.60;;
27491;SDS011;14927;51.210;6.838;2022-08-24T18:26:22;5.47;;;1.60;;
27491;SDS011;14927;51.210;6.838;2022-08-24T18:29:14;4.97;;;1.77;;
27491;SDS011;14927;51.210;6.838;2022-08-24T18:32:01;7.50;;;1.60;;
27491;SDS011;14927;51.210;6.838;2022-08-24T18:34:46;8.80;;;2.28;;
27491;SDS011;14927;51.210;6.838;2022-08-24T18:37:31;3.38;;;1.45;;
27491;SDS011;14927;51.210;6.838;2022-08-24T18:40:16;3.88;;;1.50;;
27491;SDS011;14927;51.210;6.838;2022-08-24T18:43:01;5.18;;;1.60;;
27491;SDS011;14927;51.210;6.838;2022-08-24T18:45:46;11.35;;;2.35;;
27491;SDS011;14927;51.210;6.838;2022-08-24T18:48:31;6.63;;;2.20;;
27491;SDS011;14927;51.210;6.838;2022-08-24T18:51:16;4.28;;;2.05;;
27491;SDS011;14927;51.210;6.838;2022-08-24T18:54:04;8.10;;;1.85;;
27491;SDS011;14927;51.210;6.838;2022-08-24T18:57:02;5.07;;;2.22;;
27491;SDS011;14927;51.210;6.838;2022-08-24T18:59:49;5.07;;;2.20;;
27491;SDS011;14927;51.210;6.838;2022-08-24T19:02:34;6.00;;;2.10;;
27491;SDS011;14927;51.210;6.838;2022-08-24T19:05:23;5.75;;;2.35;;
27491;SDS011;14927;51.210;6.838;2022-08-24T19:08:08;6.93;;;2.17;;
27491;SDS011;14927;51.210;6.838;2022-08-24T19:10:54;5.18;;;2.13;;
27491;SDS011;14927;51.210;6.838;2022-08-24T19:13:39;7.93;;;2.08;;
27491;SDS011;14927;51.210;6.838;2022-08-24T19:16:24;5.18;;;2.17;;
27491;SDS011;14927;51.210;6.838;2022-08-24T19:19:08;5.03;;;1.83;;
27491;SDS011;14927;51.210;6.838;2022-08-24T19:21:54;4.07;;;1.92;;
27491;SDS011;14927;51.210;6.838;2022-08-24T19:24:38;6.93;;;1.48;;
27491;SDS011;14927;51.210;6.838;2022-08-24T19:27:25;4.97;;;1.92;;
27491;SDS011;14927;51.210;6.838;2022-08-24T19:30:11;4.38;;;1.92;;
27491;SDS011;14927;51.210;6.838;2022-08-24T19:32:57;3.35;;;1.90;;
27491;SDS011;14927;51.210;6.838;2022-08-24T19:35:43;8.98;;;1.83;;
27491;SDS011;14927;51.210;6.838;2022-08-24T19:38:27;3.13;;;1.77;;
27491;SDS011;14927;51.210;6.838;2022-08-24T19:41:22;4.68;;;1.70;;
27491;SDS011;14927;51.210;6.838;2022-08-24T19:44:07;3.22;;;1.70;;
27491;SDS011;14927;51.210;6.838;2022-08-24T19:47:11;5.30;;;1.92;;
27491;SDS011;14927;51.210;6.838;2022-08-24T19:49:55;2.97;;;1.70;;
27491;SDS011;14927;51.210;6.838;2022-08-24T19:52:40;5.15;;;1.95;;
27491;SDS011;14927;51.210;6.838;2022-08-24T19:55:26;3.92;;;2.05;;
27491;SDS011;14927;51.210;6.838;2022-08-24T20:01:13;4.07;;;1.85;;
27491;SDS011;14927;51.210;6.838;2022-08-24T20:04:04;4.57;;;1.67;;
27491;SDS011;14927;51.210;6.838;2022-08-24T20:06:49;6.30;;;2.22;;
27491;SDS011;14927;51.210;6.838;2022-08-24T20:09:34;5.57;;;2.15;;
27491;SDS011;14927;51.210;6.838;2022-08-24T20:12:19;5.13;;;1.80;;
27491;SDS011;14927;51.210;6.838;2022-08-24T20:15:04;4.03;;;1.73;;
27491;SDS011;14927;51.210;6.838;2022-08-24T20:17:49;6.18;;;2.00;;
27491;SDS011;14927;51.210;6.838;2022-08-24T20:20:35;9.18;;;2.80;;
27491;SDS011;14927;51.210;6.838;2022-08-24T20:23:20;5.18;;;2.08;;
27491;SDS011;14927;51.210;6.838;2022-08-24T20:26:05;2.70;;;1.15;;